Time;durP1;ratioP1;P1;durP2;ratioP2;P2;SDS_P1;SDS_P2;PMS_P1;PMS_P2;Temp;Humidity;BMP_temperature;BMP_pressure;BME280_temperature;BME280_humidity;BME280_pressure;Samples;Min_cycle;Max_cycle;Signal;HPM_P1;HPM_P2
2021/11/03 00:01:54;;;;;;;6.90;4.20;;;;;;;;;;5030134;28;20030;-66
2021/11/03 00:04:19;;;;;;;7.75;4.30;;;;;;;;;;5030613;28;20736;-65
2021/11/03 00:06:44;;;;;;;10.55;3.80;;;;;;;;;;5030272;28;20071;-66
2021/11/03 00:09:10;;;;;;;9.52;4.45;;;;;;;;;;5030060;28;20100;-64
2021/11/03 00:11:35;;;;;;;7.22;3.67;;;;;;;;;;5030408;28;20025;-67
2021/11/03 00:14:01;;;;;;;9.15;3.95;;;;;;;;;;5030059;28;20031;-66
2021/11/03 00:16:27;;;;;;;16.23;3.55;;;;;;;;;;5030724;28;20502;-65
2021/11/03 00:18:52;;;;;;;6.75;3.67;;;;;;;;;;5030149;28;20108;-65
2021/11/03 00:21:17;;;;;;;8.45;4.47;;;;;;;;;;5029090;28;20021;-66
2021/11/03 00:23:42;;;;;;;10.02;4.15;;;;;;;;;;5029269;28;20696;-65
2021/11/03 00:26:08;;;;;;;8.07;3.60;;;;;;;;;;5031112;28;20021;-66
2021/11/03 00:28:33;;;;;;;10.05;4.97;;;;;;;;;;5030665;28;20021;-65
2021/11/03 00:30:59;;;;;;;10.23;3.53;;;;;;;;;;5030700;28;20041;-64
2021/11/03 00:33:26;;;;;;;8.75;4.60;;;;;;;;;;5029638;28;20045;-67
2021/11/03 00:35:51;;;;;;;9.35;5.03;;;;;;;;;;5030344;28;20025;-65
2021/11/03 00:38:17;;;;;;;10.43;4.60;;;;;;;;;;5029857;28;20076;-65
2021/11/03 00:40:42;;;;;;;8.65;4.55;;;;;;;;;;5029805;28;20079;-65
2021/11/03 00:43:07;;;;;;;8.40;4.53;;;;;;;;;;5029675;28;20029;-65
2021/11/03 00:45:32;;;;;;;13.20;5.68;;;;;;;;;;5029575;28;20028;-66
2021/11/03 00:47:58;;;;;;;15.80;5.63;;;;;;;;;;5030166;28;20030;-64
2021/11/03 00:50:23;;;;;;;9.98;5.80;;;;;;;;;;5029899;28;20112;-64
2021/11/03 00:52:49;;;;;;;9.75;5.15;;;;;;;;;;5029511;28;20474;-67
2021/11/03 00:55:14;;;;;;;10.23;5.20;;;;;;;;;;5030375;28;20122;-65
2021/11/03 00:57:40;;;;;;;11.18;5.65;;;;;;;;;;5028921;28;20022;-64
2021/11/03 01:00:06;;;;;;;12.25;5.03;;;;;;;;;;5030008;28;20014;-65
2021/11/03 01:02:31;;;;;;;7.88;4.43;;;;;;;;;;5029751;28;20029;-65
2021/11/03 01:04:57;;;;;;;9.70;5.40;;;;;;;;;;5030771;28;20393;-67
2021/11/03 01:07:22;;;;;;;11.73;4.85;;;;;;;;;;5031510;28;20036;-64
2021/11/03 01:09:47;;;;;;;12.60;5.00;;;;;;;;;;5031797;28;20057;-66
2021/11/03 01:12:12;;;;;;;10.00;4.95;;;;;;;;;;5031528;28;20033;-65
2021/11/03 01:14:37;;;;;;;9.32;5.10;;;;;;;;;;5031231;28;20031;-66
2021/11/03 01:17:03;;;;;;;11.32;5.32;;;;;;;;;;5031704;28;20022;-65
2021/11/03 01:19:28;;;;;;;13.00;5.38;;;;;;;;;;5029078;28;20017;-65
2021/11/03 01:21:53;;;;;;;14.52;5.43;;;;;;;;;;5028236;28;20028;-64
2021/11/03 01:24:18;;;;;;;10.77;5.18;;;;;;;;;;5030935;28;20033;-66
2021/11/03 01:26:43;;;;;;;13.85;6.03;;;;;;;;;;5028659;28;20025;-66
2021/11/03 01:29:09;;;;;;;15.17;6.00;;;;;;;;;;5033758;28;20025;-65
2021/11/03 01:31:34;;;;;;;15.75;6.70;;;;;;;;;;5033734;28;20286;-65
2021/11/03 01:34:00;;;;;;;14.45;6.80;;;;;;;;;;5033357;28;20018;-64
2021/11/03 01:36:26;;;;;;;13.65;6.57;;;;;;;;;;5030149;28;20067;-68
2021/11/03 01:38:51;;;;;;;14.18;7.65;;;;;;;;;;5023993;28;20029;-65
2021/11/03 01:41:16;;;;;;;14.65;6.40;;;;;;;;;;5023011;28;20076;-65
2021/11/03 01:43:44;;;;;;;15.20;6.38;;;;;;;;;;5030059;28;20056;-65
2021/11/03 01:46:26;;;;;;;11.73;6.03;;;;;;;;;;5030733;28;20028;-64
2021/11/03 01:48:59;;;;;;;14.13;6.88;;;;;;;;;;5029904;28;20533;-64
2021/11/03 01:51:50;;;;;;;13.68;6.63;;;;;;;;;;5029737;28;20033;-65
2021/11/03 01:54:18;;;;;;;13.95;7.05;;;;;;;;;;5022523;28;20065;-65
2021/11/03 01:56:43;;;;;;;14.13;7.05;;;;;;;;;;5030469;28;20055;-66
2021/11/03 01:59:18;;;;;;;14.25;7.10;;;;;;;;;;5030395;28;20426;-65
2021/11/03 02:01:43;;;;;;;12.95;7.10;;;;;;;;;;5029649;28;20018;-68
2021/11/03 02:04:09;;;;;;;12.25;7.00;;;;;;;;;;5030248;28;20390;-65
2021/11/03 02:06:34;;;;;;;14.27;7.47;;;;;;;;;;5031359;28;20500;-64
2021/11/03 02:08:59;;;;;;;13.45;6.82;;;;;;;;;;5031032;28;20069;-65
2021/11/03 02:11:25;;;;;;;14.40;6.82;;;;;;;;;;5030604;28;20029;-65
2021/11/03 02:13:51;;;;;;;13.70;6.80;;;;;;;;;;5029062;28;20037;-65
2021/11/03 02:16:17;;;;;;;13.50;6.32;;;;;;;;;;5029121;28;20470;-64
2021/11/03 02:18:42;;;;;;;13.15;6.93;;;;;;;;;;5031347;28;20029;-64
2021/11/03 02:21:09;;;;;;;18.38;7.72;;;;;;;;;;5032964;28;20064;-66
2021/11/03 02:23:40;;;;;;;13.75;6.57;;;;;;;;;;5032722;28;20032;-64
2021/11/03 02:26:05;;;;;;;12.45;6.82;;;;;;;;;;5034085;28;20018;-66
2021/11/03 02:28:31;;;;;;;13.95;6.38;;;;;;;;;;5032824;28;20460;-64
2021/11/03 02:30:57;;;;;;;10.23;5.20;;;;;;;;;;5032687;28;20270;-65
2021/11/03 02:33:23;;;;;;;13.25;5.50;;;;;;;;;;5028784;28;20379;-66
2021/11/03 02:35:50;;;;;;;13.32;6.80;;;;;;;;;;5028058;28;20025;-65
2021/11/03 02:38:22;;;;;;;14.25;6.53;;;;;;;;;;5030173;28;20017;-66
2021/11/03 02:40:51;;;;;;;15.43;6.40;;;;;;;;;;5029938;28;20075;-66
2021/11/03 02:43:16;;;;;;;15.02;6.43;;;;;;;;;;5030040;28;20026;-65
2021/11/03 02:45:41;;;;;;;11.77;7.10;;;;;;;;;;5028808;28;20021;-67
2021/11/03 02:48:07;;;;;;;13.07;6.43;;;;;;;;;;5029966;28;20252;-66
2021/11/03 02:50:33;;;;;;;14.27;6.60;;;;;;;;;;5030197;28;20264;-65
2021/11/03 02:52:58;;;;;;;13.25;6.72;;;;;;;;;;5029654;28;20096;-65
2021/11/03 02:55:23;;;;;;;17.00;5.88;;;;;;;;;;5029835;28;20042;-65
2021/11/03 02:57:48;;;;;;;15.75;6.47;;;;;;;;;;5030140;28;20584;-66
2021/11/03 03:00:19;;;;;;;12.18;6.43;;;;;;;;;;5029901;28;20025;-65
2021/11/03 03:02:44;;;;;;;;;;;;;;;;;;5029632;28;20033;-64
2021/11/03 03:05:09;;;;;;;12.98;7.25;;;;;;;;;;5025724;28;19917;-65
2021/11/03 03:07:34;;;;;;;10.57;5.15;;;;;;;;;;5030959;28;20388;-64
2021/11/03 03:10:00;;;;;;;13.38;6.05;;;;;;;;;;5031749;28;20561;-65
2021/11/03 03:12:27;;;;;;;13.73;6.82;;;;;;;;;;5031667;28;20036;-65
2021/11/03 03:14:53;;;;;;;15.80;7.55;;;;;;;;;;5012564;28;20470;-64
2021/11/03 03:17:18;;;;;;;15.90;7.30;;;;;;;;;;5019390;28;20026;-67
2021/11/03 03:19:44;;;;;;;16.20;6.93;;;;;;;;;;5031931;28;20021;-64
2021/11/03 03:22:09;;;;;;;12.23;6.93;;;;;;;;;;5031737;28;20024;-63
2021/11/03 03:24:35;;;;;;;15.40;7.80;;;;;;;;;;5030940;28;20021;-66
2021/11/03 03:27:00;;;;;;;15.18;7.07;;;;;;;;;;5031361;28;20022;-66
2021/11/03 03:29:27;;;;;;;18.25;8.25;;;;;;;;;;5031611;28;20471;-64
2021/11/03 03:31:52;;;;;;;19.20;8.07;;;;;;;;;;5031512;28;20030;-64
2021/11/03 03:34:19;;;;;;;22.77;9.07;;;;;;;;;;5031010;28;20043;-66
2021/11/03 03:36:45;;;;;;;16.55;8.00;;;;;;;;;;5031468;28;20056;-64
2021/11/03 03:39:11;;;;;;;16.63;8.63;;;;;;;;;;5031004;28;20022;-64
2021/11/03 03:41:37;;;;;;;17.70;8.73;;;;;;;;;;5031484;28;20025;-67
2021/11/03 03:44:03;;;;;;;17.27;9.25;;;;;;;;;;5030815;28;20025;-65
2021/11/03 03:46:28;;;;;;;19.27;8.65;;;;;;;;;;5030891;28;20494;-64
2021/11/03 03:48:53;;;;;;;15.65;8.52;;;;;;;;;;5031477;28;20056;-65
2021/11/03 03:51:19;;;;;;;16.45;8.43;;;;;;;;;;5031375;28;20063;-64
2021/11/03 03:53:44;;;;;;;16.38;9.13;;;;;;;;;;5030284;28;20367;-64
2021/11/03 03:56:11;;;;;;;23.60;9.57;;;;;;;;;;5031007;28;20061;-65
2021/11/03 03:58:36;;;;;;;21.13;9.18;;;;;;;;;;5031045;28;20052;-64
2021/11/03 04:01:02;;;;;;;20.13;7.38;;;;;;;;;;5030186;28;20064;-65
2021/11/03 04:03:27;;;;;;;18.75;9.48;;;;;;;;;;5030491;28;20025;-65
2021/11/03 04:05:54;;;;;;;18.52;8.23;;;;;;;;;;5031067;28;20029;-65
2021/11/03 04:08:20;;;;;;;21.65;10.00;;;;;;;;;;5030454;28;20110;-64
2021/11/03 04:10:46;;;;;;;25.05;11.13;;;;;;;;;;5030805;28;20067;-64
2021/11/03 04:13:11;;;;;;;23.42;10.35;;;;;;;;;;5030461;28;20018;-65
2021/11/03 04:15:36;;;;;;;24.63;9.40;;;;;;;;;;5030761;28;20563;-65
2021/11/03 04:18:02;;;;;;;24.45;8.57;;;;;;;;;;5030340;28;20021;-64
2021/11/03 04:20:27;;;;;;;22.27;9.57;;;;;;;;;;5030312;28;20037;-64
2021/11/03 04:22:52;;;;;;;20.98;9.65;;;;;;;;;;5030132;28;20076;-63
2021/11/03 04:25:18;;;;;;;23.67;10.18;;;;;;;;;;5030418;28;20108;-66
2021/11/03 04:27:43;;;;;;;24.88;10.70;;;;;;;;;;5030205;28;20524;-65
2021/11/03 04:30:09;;;;;;;22.52;10.63;;;;;;;;;;5030418;28;20075;-66
2021/11/03 04:32:35;;;;;;;30.15;10.55;;;;;;;;;;5029692;28;20052;-66
2021/11/03 04:35:00;;;;;;;21.52;10.63;;;;;;;;;;5029682;28;20470;-64
2021/11/03 04:37:25;;;;;;;22.50;9.35;;;;;;;;;;5029674;28;20053;-65
2021/11/03 04:39:50;;;;;;;22.23;9.52;;;;;;;;;;5020446;28;20026;-66
2021/11/03 04:42:15;;;;;;;22.33;10.05;;;;;;;;;;5029626;28;20486;-64
2021/11/03 04:44:41;;;;;;;27.17;11.05;;;;;;;;;;5030220;28;20478;-65
2021/11/03 04:47:06;;;;;;;27.38;9.65;;;;;;;;;;5029286;28;20041;-64
2021/11/03 04:49:31;;;;;;;23.52;10.38;;;;;;;;;;5029936;28;20040;-65
2021/11/03 04:51:56;;;;;;;26.95;10.38;;;;;;;;;;5029950;28;20038;-64
2021/11/03 04:54:22;;;;;;;26.67;10.85;;;;;;;;;;5030121;28;20025;-64
2021/11/03 04:56:47;;;;;;;24.23;11.73;;;;;;;;;;5030199;28;20017;-66
2021/11/03 04:59:13;;;;;;;26.83;10.95;;;;;;;;;;5029864;28;20410;-64
2021/11/03 05:01:38;;;;;;;32.10;12.43;;;;;;;;;;5029978;28;20462;-64
2021/11/03 05:04:03;;;;;;;25.58;11.02;;;;;;;;;;5029970;28;20029;-65
2021/11/03 05:06:30;;;;;;;24.55;10.82;;;;;;;;;;5030532;28;20025;-64
2021/11/03 05:08:56;;;;;;;27.92;11.77;;;;;;;;;;5030138;28;20022;-65
2021/11/03 05:11:22;;;;;;;30.00;12.13;;;;;;;;;;5030267;28;20031;-64
2021/11/03 05:13:50;;;;;;;28.35;11.82;;;;;;;;;;5029265;28;20037;-66
2021/11/03 05:16:17;;;;;;;32.65;13.60;;;;;;;;;;5029967;28;20017;-67
2021/11/03 05:18:42;;;;;;;26.60;11.15;;;;;;;;;;5029956;28;20021;-65
2021/11/03 05:21:07;;;;;;;25.95;10.93;;;;;;;;;;5030083;28;20075;-66
2021/11/03 05:23:33;;;;;;;26.50;12.73;;;;;;;;;;5029774;28;20100;-66
2021/11/03 05:25:58;;;;;;;28.63;11.85;;;;;;;;;;5029876;28;20032;-66
2021/11/03 05:28:23;;;;;;;31.27;12.50;;;;;;;;;;5030031;28;20091;-65
2021/11/03 05:30:49;;;;;;;26.23;11.48;;;;;;;;;;5029730;28;20741;-65
2021/11/03 05:33:14;;;;;;;29.58;11.68;;;;;;;;;;5029340;28;20045;-66
2021/11/03 05:35:39;;;;;;;27.75;12.23;;;;;;;;;;5029853;28;20033;-67
2021/11/03 05:38:05;;;;;;;31.25;11.82;;;;;;;;;;5029685;28;20026;-64
2021/11/03 05:40:30;;;;;;;31.33;11.13;;;;;;;;;;5030040;28;20030;-65
2021/11/03 05:42:56;;;;;;;23.27;11.40;;;;;;;;;;5029607;28;20029;-66
2021/11/03 05:45:22;;;;;;;32.25;12.55;;;;;;;;;;5029748;28;20462;-67
2021/11/03 05:47:47;;;;;;;31.75;11.60;;;;;;;;;;5030448;28;20033;-65
2021/11/03 05:50:17;;;;;;;31.75;12.30;;;;;;;;;;5033172;28;20470;-64
2021/11/03 05:52:43;;;;;;;29.05;11.27;;;;;;;;;;5033315;28;20026;-67
2021/11/03 05:55:08;;;;;;;31.35;11.50;;;;;;;;;;5032280;28;20033;-66
2021/11/03 05:57:35;;;;;;;28.42;11.75;;;;;;;;;;5033247;28;20017;-65
2021/11/03 06:00:04;;;;;;;34.58;13.02;;;;;;;;;;5033080;28;20048;-66
2021/11/03 06:02:29;;;;;;;30.83;12.15;;;;;;;;;;5032736;28;20024;-66
2021/11/03 06:04:55;;;;;;;29.77;12.40;;;;;;;;;;5040522;28;20107;-66
2021/11/03 06:07:23;;;;;;;25.47;11.10;;;;;;;;;;5042421;28;20485;-66
2021/11/03 06:09:48;;;;;;;27.73;11.02;;;;;;;;;;5032282;28;20280;-65
2021/11/03 06:12:14;;;;;;;33.65;12.02;;;;;;;;;;5032084;28;20375;-65
2021/11/03 06:14:39;;;;;;;28.33;12.50;;;;;;;;;;5032926;28;20025;-65
2021/11/03 06:17:04;;;;;;;27.42;11.63;;;;;;;;;;5032725;28;20021;-65
2021/11/03 06:19:30;;;;;;;27.50;11.15;;;;;;;;;;5032435;28;20017;-65
2021/11/03 06:21:55;;;;;;;37.20;13.10;;;;;;;;;;5032341;28;20013;-66
2021/11/03 06:24:21;;;;;;;33.22;12.45;;;;;;;;;;5032333;28;20025;-65
2021/11/03 06:26:46;;;;;;;37.33;13.02;;;;;;;;;;5033905;28;20359;-66
2021/11/03 06:29:11;;;;;;;30.02;12.15;;;;;;;;;;5033822;28;20064;-66
2021/11/03 06:31:37;;;;;;;34.80;12.85;;;;;;;;;;5030580;28;20112;-65
2021/11/03 06:34:05;;;;;;;41.28;13.00;;;;;;;;;;5029367;28;20025;-64
2021/11/03 06:36:30;;;;;;;33.67;11.52;;;;;;;;;;5029357;28;20020;-65
2021/11/03 06:38:55;;;;;;;40.35;13.07;;;;;;;;;;5029914;28;20248;-65
2021/11/03 06:41:21;;;;;;;29.95;11.85;;;;;;;;;;5029447;28;20025;-64
2021/11/03 06:43:46;;;;;;;34.05;13.27;;;;;;;;;;5029478;28;20136;-66
2021/11/03 06:46:12;;;;;;;32.65;11.88;;;;;;;;;;5028694;28;20025;-67
2021/11/03 06:48:38;;;;;;;30.48;11.27;;;;;;;;;;5028661;28;20027;-65
2021/11/03 06:51:03;;;;;;;28.27;11.98;;;;;;;;;;5031916;28;20514;-64
2021/11/03 06:53:29;;;;;;;28.95;11.55;;;;;;;;;;5030881;28;20382;-66
2021/11/03 06:55:55;;;;;;;31.70;11.50;;;;;;;;;;5031707;28;20819;-64
2021/11/03 06:58:21;;;;;;;22.65;9.63;;;;;;;;;;5030673;28;20148;-65
2021/11/03 07:00:47;;;;;;;22.65;10.85;;;;;;;;;;5031100;28;20093;-65
2021/11/03 07:03:12;;;;;;;26.98;10.05;;;;;;;;;;5031139;28;20033;-65
2021/11/03 07:05:40;;;;;;;23.85;10.80;;;;;;;;;;5031663;28;20021;-66
2021/11/03 07:08:05;;;;;;;25.65;10.55;;;;;;;;;;5031522;28;20486;-65
2021/11/03 07:10:33;;;;;;;22.50;10.05;;;;;;;;;;5030314;28;20032;-66
2021/11/03 07:12:58;;;;;;;23.40;9.85;;;;;;;;;;5029880;28;20359;-66
2021/11/03 07:15:24;;;;;;;22.60;9.30;;;;;;;;;;5031441;28;20036;-64
2021/11/03 07:17:50;;;;;;;19.63;8.48;;;;;;;;;;5031185;28;20089;-66
2021/11/03 07:20:15;;;;;;;19.70;8.25;;;;;;;;;;5031465;28;20108;-66
2021/11/03 07:22:40;;;;;;;16.42;6.15;;;;;;;;;;5030249;28;20378;-63
2021/11/03 07:25:06;;;;;;;18.00;6.97;;;;;;;;;;5037874;28;20029;-67
2021/11/03 07:27:31;;;;;;;17.95;7.97;;;;;;;;;;5031671;28;20021;-66
2021/11/03 07:29:57;;;;;;;20.38;7.65;;;;;;;;;;5039498;23;20159;-69
2021/11/03 07:32:22;;;;;;;21.73;9.07;;;;;;;;;;5029528;28;20086;-69
2021/11/03 07:34:47;;;;;;;19.70;8.25;;;;;;;;;;5030907;28;20029;-69
2021/11/03 07:37:12;;;;;;;12.88;6.25;;;;;;;;;;5031710;28;20380;-69
2021/11/03 07:39:38;;;;;;;20.15;6.75;;;;;;;;;;5031758;28;20472;-69
2021/11/03 07:42:03;;;;;;;15.38;7.50;;;;;;;;;;5031501;28;20014;-69
2021/11/03 07:44:28;;;;;;;16.45;7.47;;;;;;;;;;5031379;28;20021;-69
2021/11/03 07:46:54;;;;;;;17.20;7.75;;;;;;;;;;5031166;28;20033;-69
2021/11/03 07:49:19;;;;;;;16.27;7.35;;;;;;;;;;5031447;28;20104;-69
2021/11/03 07:51:45;;;;;;;12.88;6.72;;;;;;;;;;5031269;28;20041;-69
2021/11/03 07:54:10;;;;;;;14.63;6.90;;;;;;;;;;5029829;28;20115;-69
2021/11/03 07:56:36;;;;;;;9.57;4.25;;;;;;;;;;5030619;28;20044;-69
2021/11/03 07:59:02;;;;;;;16.58;6.88;;;;;;;;;;5030705;28;21023;-69
2021/11/03 08:01:27;;;;;;;15.73;7.22;;;;;;;;;;5029796;28;20009;-69
2021/11/03 08:03:54;;;;;;;18.42;7.90;;;;;;;;;;5029369;28;20436;-69
2021/11/03 08:06:20;;;;;;;16.92;7.15;;;;;;;;;;5031774;28;20021;-69
2021/11/03 08:08:51;;;;;;;17.63;6.03;;;;;;;;;;5042199;28;20028;-69
2021/11/03 08:11:20;;;;;;;18.92;5.50;;;;;;;;;;5029167;28;20033;-70
2021/11/03 08:13:45;;;;;;;14.73;7.32;;;;;;;;;;5030194;28;20087;-70
2021/11/03 08:16:10;;;;;;;17.77;6.82;;;;;;;;;;5029307;28;20048;-69
2021/11/03 08:18:40;;;;;;;14.75;6.85;;;;;;;;;;5030503;28;20017;-69
2021/11/03 08:21:06;;;;;;;12.40;5.95;;;;;;;;;;5030097;28;20021;-69
2021/11/03 08:23:31;;;;;;;11.93;6.75;;;;;;;;;;5029965;28;20046;-69
2021/11/03 08:25:57;;;;;;;15.63;7.57;;;;;;;;;;5028524;28;20013;-69
2021/11/03 08:28:22;;;;;;;18.00;6.93;;;;;;;;;;5029823;28;20029;-69
2021/11/03 08:30:49;;;;;;;12.38;6.82;;;;;;;;;;5031313;28;20070;-69
2021/11/03 08:33:16;;;;;;;13.80;6.93;;;;;;;;;;5029919;28;20049;-69
2021/11/03 08:35:43;;;;;;;13.80;6.38;;;;;;;;;;5027835;28;20017;-69
2021/11/03 08:38:10;;;;;;;15.38;7.60;;;;;;;;;;5030106;28;20018;-70
2021/11/03 08:40:36;;;;;;;15.82;7.22;;;;;;;;;;5030270;28;20092;-69
2021/11/03 08:43:03;;;;;;;18.40;8.15;;;;;;;;;;5029416;28;20136;-69
2021/11/03 08:45:29;;;;;;;20.13;7.65;;;;;;;;;;5025291;28;20115;-69
2021/11/03 08:47:54;;;;;;;17.80;7.82;;;;;;;;;;5029197;28;20076;-69
2021/11/03 08:50:21;;;;;;;19.02;8.63;;;;;;;;;;5024896;28;20029;-69
2021/11/03 08:52:47;;;;;;;16.05;8.43;;;;;;;;;;5020733;28;20104;-69
2021/11/03 08:55:12;;;;;;;15.48;7.45;;;;;;;;;;5029784;28;20156;-69
2021/11/03 08:57:38;;;;;;;17.50;7.38;;;;;;;;;;5025140;28;20099;-69
2021/11/03 09:00:06;;;;;;;15.25;7.20;;;;;;;;;;5029694;28;20021;-70
2021/11/03 09:02:31;;;;;;;15.98;8.05;;;;;;;;;;5029673;28;20092;-70
2021/11/03 09:04:57;;;;;;;14.55;6.35;;;;;;;;;;5030227;28;20037;-70
2021/11/03 09:07:22;;;;;;;15.77;7.45;;;;;;;;;;5029740;28;20033;-70
2021/11/03 09:09:47;;;;;;;21.05;10.27;;;;;;;;;;5029257;28;20108;-69
2021/11/03 09:12:13;;;;;;;17.88;9.20;;;;;;;;;;5029108;28;20112;-69
2021/11/03 09:14:39;;;;;;;20.08;8.55;;;;;;;;;;5013848;28;20029;-69
2021/11/03 09:17:04;;;;;;;14.32;7.60;;;;;;;;;;5029442;28;20536;-69
2021/11/03 09:19:30;;;;;;;17.63;8.30;;;;;;;;;;5029328;28;20018;-69
2021/11/03 09:21:55;;;;;;;16.55;8.05;;;;;;;;;;5028890;28;20076;-69
2021/11/03 09:24:20;;;;;;;16.87;7.73;;;;;;;;;;5033524;28;20030;-69
2021/11/03 09:26:45;;;;;;;15.32;7.72;;;;;;;;;;5033391;28;20260;-69
2021/11/03 09:29:12;;;;;;;17.00;7.25;;;;;;;;;;5033768;28;20033;-69
2021/11/03 09:31:37;;;;;;;16.95;7.70;;;;;;;;;;5033478;28;20508;-69
2021/11/03 09:34:03;;;;;;;14.52;7.57;;;;;;;;;;5033253;28;20030;-69
2021/11/03 09:36:28;;;;;;;20.27;8.15;;;;;;;;;;5033794;28;20033;-70
2021/11/03 09:38:54;;;;;;;17.25;7.43;;;;;;;;;;5032946;28;20040;-69
2021/11/03 09:41:22;;;;;;;16.20;8.48;;;;;;;;;;5032829;28;20024;-70
2021/11/03 09:43:47;;;;;;;20.38;7.78;;;;;;;;;;5032939;28;20029;-69
2021/11/03 09:46:15;;;;;;;18.88;7.80;;;;;;;;;;5032537;28;20022;-69
2021/11/03 09:48:40;;;;;;;13.73;8.25;;;;;;;;;;5032623;28;20155;-70
2021/11/03 09:51:13;;;;;;;14.00;7.97;;;;;;;;;;5032750;28;20046;-69
2021/11/03 09:53:43;;;;;;;16.05;8.30;;;;;;;;;;5030433;28;20025;-69
2021/11/03 09:56:13;;;;;;;17.93;9.10;;;;;;;;;;5028544;28;20048;-69
2021/11/03 09:58:38;;;;;;;;;;;;;;;;;;5041924;28;20024;-69
2021/11/03 10:01:08;;;;;;;17.08;7.45;;;;;;;;;;5033404;28;19917;-69
2021/11/03 10:03:46;;;;;;;17.05;7.60;;;;;;;;;;5030024;28;20271;-69
2021/11/03 10:06:14;;;;;;;15.27;8.18;;;;;;;;;;5032797;28;20029;-69
2021/11/03 10:08:44;;;;;;;14.85;7.60;;;;;;;;;;5033090;28;20018;-69
2021/11/03 10:11:18;;;;;;;17.38;8.27;;;;;;;;;;5032556;28;20084;-69
2021/11/03 10:13:45;;;;;;;14.90;8.30;;;;;;;;;;5032085;28;20075;-69
2021/11/03 10:16:10;;;;;;;17.73;7.80;;;;;;;;;;5032929;28;20024;-69
2021/11/03 10:18:37;;;;;;;13.88;7.60;;;;;;;;;;5032122;28;20096;-69
2021/11/03 10:21:05;;;;;;;15.55;7.25;;;;;;;;;;5033033;28;20268;-69
2021/11/03 10:23:32;;;;;;;16.88;7.57;;;;;;;;;;5026058;28;20022;-69
2021/11/03 10:26:02;;;;;;;13.95;7.50;;;;;;;;;;5026052;28;20018;-69
2021/11/03 10:28:47;;;;;;;14.85;7.65;;;;;;;;;;5032580;28;20037;-69
2021/11/03 10:31:25;;;;;;;13.73;7.63;;;;;;;;;;5032306;28;20026;-69
2021/11/03 10:33:57;;;;;;;16.40;7.07;;;;;;;;;;5031510;28;20093;-68
2021/11/03 10:36:23;;;;;;;18.23;8.10;;;;;;;;;;5032401;28;20033;-69
2021/11/03 10:39:01;;;;;;;12.70;7.03;;;;;;;;;;5020035;28;20033;-69
2021/11/03 10:41:31;;;;;;;17.52;8.68;;;;;;;;;;5018474;28;20021;-69
2021/11/03 10:43:59;;;;;;;15.20;7.15;;;;;;;;;;5025929;28;20385;-69
2021/11/03 10:46:29;;;;;;;12.70;7.45;;;;;;;;;;5032259;28;20037;-69
2021/11/03 10:48:55;;;;;;;;;;;;;;;;;;5033091;28;20056;-69
2021/11/03 10:51:34;;;;;;;18.00;7.53;;;;;;;;;;5032321;28;20393;-69
2021/11/03 10:54:10;;;;;;;14.25;6.35;;;;;;;;;;5031874;28;20030;-69
2021/11/03 10:56:45;;;;;;;13.73;8.15;;;;;;;;;;5032502;28;20025;-69
2021/11/03 10:59:22;;;;;;;16.50;7.28;;;;;;;;;;5032250;28;20049;-69
2021/11/03 11:01:48;;;;;;;17.65;8.48;;;;;;;;;;5031963;28;20032;-69
2021/11/03 11:04:14;;;;;;;12.55;7.22;;;;;;;;;;5032178;28;20029;-67
2021/11/03 11:06:41;;;;;;;14.15;7.47;;;;;;;;;;5032094;28;20025;-69
2021/11/03 11:09:07;;;;;;;16.10;9.18;;;;;;;;;;5031211;28;20017;-69
2021/11/03 11:11:33;;;;;;;18.85;9.20;;;;;;;;;;5032215;28;20026;-70
2021/11/03 11:14:01;;;;;;;17.65;8.40;;;;;;;;;;5030521;28;20291;-72
2021/11/03 11:16:38;;;;;;;19.20;8.60;;;;;;;;;;5029556;28;20052;-68
2021/11/03 11:19:14;;;;;;;21.10;8.57;;;;;;;;;;5031076;28;20041;-69
2021/11/03 11:21:45;;;;;;;17.02;8.82;;;;;;;;;;5022999;28;20021;-70
2021/11/03 11:24:16;;;;;;;19.75;9.75;;;;;;;;;;5033881;28;20025;-69
2021/11/03 11:26:48;;;;;;;17.02;9.15;;;;;;;;;;5027135;28;20478;-68
2021/11/03 11:29:13;;;;;;;19.58;9.70;;;;;;;;;;5031433;28;20041;-69
2021/11/03 11:31:53;;;;;;;20.47;10.00;;;;;;;;;;5030811;28;20493;-68
2021/11/03 11:34:18;;;;;;;19.23;9.05;;;;;;;;;;5031437;28;20288;-69
2021/11/03 11:36:56;;;;;;;16.27;8.97;;;;;;;;;;5031094;28;20056;-69
2021/11/03 11:39:40;;;;;;;26.40;9.75;;;;;;;;;;5030958;28;20343;-68
2021/11/03 11:42:13;;;;;;;23.73;9.38;;;;;;;;;;5011961;28;20382;-69
2021/11/03 11:44:44;;;;;;;19.48;9.52;;;;;;;;;;5028240;28;20056;-69
2021/11/03 11:47:15;;;;;;;20.00;10.13;;;;;;;;;;5022865;28;20029;-69
2021/11/03 11:49:41;;;;;;;;;;;;;;;;;;5031350;28;20105;-68
2021/11/03 11:52:19;;;;;;;21.23;9.60;;;;;;;;;;5030912;28;20313;-69
2021/11/03 11:55:03;;;;;;;26.92;11.90;;;;;;;;;;5030834;28;20486;-69
2021/11/03 11:57:29;;;;;;;26.77;10.68;;;;;;;;;;5029567;28;20029;-69
2021/11/03 11:59:54;;;;;;;23.85;10.43;;;;;;;;;;5031044;28;20036;-69
2021/11/03 12:02:21;;;;;;;21.63;11.13;;;;;;;;;;5030833;28;20018;-69
2021/11/03 12:04:46;;;;;;;19.13;9.40;;;;;;;;;;5030553;28;20264;-69
2021/11/03 12:07:19;;;;;;;22.13;10.73;;;;;;;;;;5030773;28;20655;-69
2021/11/03 12:09:44;;;;;;;21.70;9.95;;;;;;;;;;5030324;28;20465;-68
2021/11/03 12:12:12;;;;;;;24.03;10.93;;;;;;;;;;5029386;28;20049;-68
2021/11/03 12:14:39;;;;;;;21.92;10.15;;;;;;;;;;5030233;28;20355;-68
2021/11/03 12:17:08;;;;;;;24.63;10.85;;;;;;;;;;5025781;28;20030;-68
2021/11/03 12:19:44;;;;;;;24.25;10.65;;;;;;;;;;5030371;28;20369;-68
2021/11/03 12:22:12;;;;;;;21.75;9.73;;;;;;;;;;5029807;28;20021;-68
2021/11/03 12:24:41;;;;;;;17.98;9.27;;;;;;;;;;5030158;28;20104;-68
2021/11/03 12:27:21;;;;;;;24.35;9.18;;;;;;;;;;5030273;28;20495;-68
2021/11/03 12:29:46;;;;;;;;;;;;;;;;;;5026736;28;20386;-69
2021/11/03 12:32:27;;;;;;;17.50;8.45;;;;;;;;;;5030057;28;20316;-68
2021/11/03 12:35:00;;;;;;;11.52;5.78;;;;;;;;;;5030513;28;20375;-68
2021/11/03 12:37:28;;;;;;;11.77;5.80;;;;;;;;;;5029942;28;20025;-68
2021/11/03 12:39:56;;;;;;;12.35;5.97;;;;;;;;;;5030481;28;20668;-67
2021/11/03 12:42:25;;;;;;;13.18;5.70;;;;;;;;;;5029991;28;20517;-68
2021/11/03 12:45:14;;;;;;;17.58;7.45;;;;;;;;;;5030111;28;20098;-67
2021/11/03 12:48:05;;;;;;;11.35;5.57;;;;;;;;;;5024506;28;20402;-68
2021/11/03 12:50:49;;;;;;;10.15;5.45;;;;;;;;;;5014229;28;20029;-67
2021/11/03 12:53:14;;;;;;;10.88;4.70;;;;;;;;;;5029844;28;20025;-68
2021/11/03 12:55:57;;;;;;;7.50;3.80;;;;;;;;;;5024958;28;20032;-68
2021/11/03 12:58:34;;;;;;;7.90;3.10;;;;;;;;;;5023135;28;20300;-68
2021/11/03 13:01:01;;;;;;;9.57;3.08;;;;;;;;;;5029990;28;20017;-68
2021/11/03 13:03:29;;;;;;;8.68;3.88;;;;;;;;;;5030062;28;20490;-68
2021/11/03 13:05:55;;;;;;;9.98;3.70;;;;;;;;;;5029967;28;20018;-67
2021/11/03 13:08:25;;;;;;;8.43;4.25;;;;;;;;;;5024189;28;20029;-68
2021/11/03 13:11:13;;;;;;;8.95;3.15;;;;;;;;;;5026724;28;20040;-68
2021/11/03 13:13:44;;;;;;;5.45;2.85;;;;;;;;;;5025758;28;20032;-69
2021/11/03 13:16:17;;;;;;;4.63;2.17;;;;;;;;;;5030253;28;20025;-68
2021/11/03 13:18:43;;;;;;;5.82;2.17;;;;;;;;;;5029946;28;20024;-68
2021/11/03 13:21:20;;;;;;;3.13;1.75;;;;;;;;;;5029307;28;20624;-68
2021/11/03 13:23:47;;;;;;;4.57;1.83;;;;;;;;;;5029992;28;20010;-68
2021/11/03 13:26:15;;;;;;;3.70;1.95;;;;;;;;;;5028562;28;20401;-68
2021/11/03 13:28:45;;;;;;;4.85;2.40;;;;;;;;;;5030054;28;20025;-68
2021/11/03 13:31:28;;;;;;;3.40;2.22;;;;;;;;;;5029836;28;20108;-68
2021/11/03 13:33:58;;;;;;;5.50;2.00;;;;;;;;;;5029360;28;20100;-68
2021/11/03 13:36:25;;;;;;;5.38;2.22;;;;;;;;;;5029607;28;20079;-68
2021/11/03 13:38:59;;;;;;;3.08;2.20;;;;;;;;;;5029880;28;20493;-67
2021/11/03 13:41:26;;;;;;;3.75;2.05;;;;;;;;;;5029730;28;20108;-68
2021/11/03 13:44:11;;;;;;;7.28;2.30;;;;;;;;;;5029557;28;20114;-68
2021/11/03 13:46:36;;;;;;;4.10;2.03;;;;;;;;;;5029471;28;20021;-68
2021/11/03 13:49:03;;;;;;;5.78;2.40;;;;;;;;;;5029742;28;20013;-68
2021/11/03 13:51:30;;;;;;;4.25;1.80;;;;;;;;;;5026082;28;20033;-67
2021/11/03 13:53:58;;;;;;;9.57;4.10;;;;;;;;;;5024704;28;20021;-68
2021/11/03 13:56:24;;;;;;;4.93;2.53;;;;;;;;;;5027632;28;20418;-69
2021/11/03 13:59:14;;;;;;;5.57;2.70;;;;;;;;;;5029409;28;20060;-68
2021/11/03 14:01:46;;;;;;;3.40;1.92;;;;;;;;;;5023428;28;20036;-69
2021/11/03 14:04:15;;;;;;;4.30;1.63;;;;;;;;;;5028772;28;20025;-69
2021/11/03 14:06:59;;;;;;;6.50;2.03;;;;;;;;;;5029108;28;20026;-69
2021/11/03 14:09:24;;;;;;;3.15;1.50;;;;;;;;;;5028409;28;20116;-68
2021/11/03 14:12:00;;;;;;;5.45;2.13;;;;;;;;;;5032887;28;20554;-68
2021/11/03 14:14:25;;;;;;;3.08;1.90;;;;;;;;;;5032815;28;20072;-70
2021/11/03 14:16:59;;;;;;;2.55;1.48;;;;;;;;;;5031959;28;20020;-68
2021/11/03 14:19:27;;;;;;;4.80;1.95;;;;;;;;;;5031395;28;20029;-68
2021/11/03 14:21:53;;;;;;;2.30;1.70;;;;;;;;;;5032824;28;20155;-68
2021/11/03 14:24:18;;;;;;;4.93;2.65;;;;;;;;;;5035309;28;20057;-68
2021/11/03 14:26:44;;;;;;;4.63;2.40;;;;;;;;;;5032450;28;20064;-68
2021/11/03 14:29:09;;;;;;;6.00;3.35;;;;;;;;;;5032596;28;20096;-68
2021/11/03 14:31:35;;;;;;;5.20;2.70;;;;;;;;;;5032864;28;20418;-68
2021/11/03 14:34:03;;;;;;;5.90;3.05;;;;;;;;;;5032348;28;20556;-68